Time;durP1;ratioP1;P1;durP2;ratioP2;P2;SDS_P1;SDS_P2;PMS_P1;PMS_P2;Temp;Humidity;BMP_temperature;BMP_pressure;BME280_temperature;BME280_humidity;BME280_pressure;Samples;Min_cycle;Max_cycle;Signal;HPM_P1;HPM_P2
2023/06/30 00:01:48;;;;;;;12.20;4.60;;;;;;;;;;4866030;29;20036;-73
2023/06/30 00:04:16;;;;;;;;;;;;;;;;;;4871000;29;20066;-72
2023/06/30 00:06:42;;;;;;;13.15;4.20;;;;;;;;;;4899468;29;19919;-72
2023/06/30 00:09:08;;;;;;;19.70;4.47;;;;;;;;;;4885393;29;20083;-72
2023/06/30 00:11:36;;;;;;;13.57;4.47;;;;;;;;;;4884954;29;20047;-72
2023/06/30 00:14:02;;;;;;;15.73;4.53;;;;;;;;;;4885609;29;20054;-73
2023/06/30 00:16:31;;;;;;;13.23;4.57;;;;;;;;;;4886201;29;20047;-73
2023/06/30 00:18:57;;;;;;;19.55;4.65;;;;;;;;;;4861715;29;20258;-72
2023/06/30 00:21:23;;;;;;;15.32;4.22;;;;;;;;;;4886632;29;20048;-73
2023/06/30 00:23:49;;;;;;;9.00;3.90;;;;;;;;;;4884947;29;20044;-72
2023/06/30 00:26:16;;;;;;;13.10;4.63;;;;;;;;;;4871651;29;20056;-72
2023/06/30 00:28:42;;;;;;;10.98;4.75;;;;;;;;;;4891121;29;20052;-73
2023/06/30 00:31:08;;;;;;;19.75;5.28;;;;;;;;;;4884240;29;20047;-73
2023/06/30 00:33:34;;;;;;;12.75;4.55;;;;;;;;;;4884674;29;20144;-72
2023/06/30 00:36:00;;;;;;;13.25;4.43;;;;;;;;;;4886180;29;20130;-72
2023/06/30 00:38:26;;;;;;;14.07;4.40;;;;;;;;;;4881071;29;20927;-73
2023/06/30 00:40:52;;;;;;;17.25;5.63;;;;;;;;;;4895579;29;20044;-72
2023/06/30 00:43:18;;;;;;;16.00;4.57;;;;;;;;;;4891006;29;20082;-73
2023/06/30 00:45:44;;;;;;;18.25;5.00;;;;;;;;;;4884920;29;20048;-72
2023/06/30 00:48:10;;;;;;;16.20;4.60;;;;;;;;;;4887019;29;20551;-73
2023/06/30 00:50:37;;;;;;;12.27;4.20;;;;;;;;;;4889897;29;20951;-73
2023/06/30 00:53:03;;;;;;;13.10;4.47;;;;;;;;;;4887944;29;20168;-72
2023/06/30 00:55:29;;;;;;;15.55;4.47;;;;;;;;;;4886535;29;20438;-72
2023/06/30 00:57:55;;;;;;;14.00;4.30;;;;;;;;;;4874969;29;20055;-72
2023/06/30 01:00:21;;;;;;;11.68;4.53;;;;;;;;;;4885376;29;20056;-72
2023/06/30 01:03:14;;;;;;;11.15;4.55;;;;;;;;;;4887574;29;20072;-73
2023/06/30 01:06:00;;;;;;;18.33;5.05;;;;;;;;;;4881948;29;20044;-72
2023/06/30 01:08:42;;;;;;;17.52;5.40;;;;;;;;;;4884547;29;20056;-72
2023/06/30 01:11:10;;;;;;;15.68;4.70;;;;;;;;;;4868729;29;20497;-73
2023/06/30 01:13:36;;;;;;;14.10;4.90;;;;;;;;;;4886369;29;20174;-72
2023/06/30 01:16:04;;;;;;;14.55;5.10;;;;;;;;;;4889588;29;20094;-73
2023/06/30 01:18:36;;;;;;;15.82;5.50;;;;;;;;;;4886483;29;20055;-73
2023/06/30 01:21:03;;;;;;;6.97;4.18;;;;;;;;;;4886135;29;20051;-73
2023/06/30 01:23:34;;;;;;;10.77;4.60;;;;;;;;;;4887951;29;20044;-72
2023/06/30 01:26:01;;;;;;;19.67;4.97;;;;;;;;;;4869614;29;20116;-72
2023/06/30 01:28:27;;;;;;;18.38;5.38;;;;;;;;;;4889578;29;20106;-73
2023/06/30 01:30:54;;;;;;;10.50;4.90;;;;;;;;;;4887156;29;20051;-72
2023/06/30 01:33:21;;;;;;;17.17;4.88;;;;;;;;;;4887316;29;20043;-72
2023/06/30 01:35:47;;;;;;;14.27;4.82;;;;;;;;;;4888059;29;20516;-72
2023/06/30 01:38:13;;;;;;;14.35;4.90;;;;;;;;;;4888600;29;20060;-72
2023/06/30 01:40:40;;;;;;;9.23;5.18;;;;;;;;;;4903903;29;20084;-73
2023/06/30 01:43:06;;;;;;;16.15;4.85;;;;;;;;;;4888431;29;20063;-72
2023/06/30 01:45:33;;;;;;;17.80;5.32;;;;;;;;;;4887899;29;20040;-73
2023/06/30 01:47:59;;;;;;;16.58;4.97;;;;;;;;;;4888457;29;20044;-72
2023/06/30 01:50:31;;;;;;;11.40;4.95;;;;;;;;;;4871893;29;20052;-73
2023/06/30 01:52:58;;;;;;;11.45;4.63;;;;;;;;;;4885444;29;20416;-73
2023/06/30 01:55:24;;;;;;;12.50;5.30;;;;;;;;;;4883998;29;20044;-73
2023/06/30 01:57:50;;;;;;;14.00;4.85;;;;;;;;;;4886493;29;20052;-74
2023/06/30 02:00:16;;;;;;;15.73;5.70;;;;;;;;;;4884939;29;20040;-72
2023/06/30 02:02:42;;;;;;;15.95;6.28;;;;;;;;;;4883638;29;20041;-72
2023/06/30 02:05:08;;;;;;;11.25;5.45;;;;;;;;;;4884008;29;20421;-71
2023/06/30 02:07:34;;;;;;;11.95;4.90;;;;;;;;;;4899512;29;20523;-72
2023/06/30 02:10:01;;;;;;;13.68;4.55;;;;;;;;;;4885774;29;22079;-72
2023/06/30 02:12:27;;;;;;;13.98;5.25;;;;;;;;;;4883138;29;20504;-73
2023/06/30 02:14:53;;;;;;;14.63;5.30;;;;;;;;;;4883900;29;20550;-73
2023/06/30 02:17:32;;;;;;;13.13;5.28;;;;;;;;;;4885677;29;20624;-74
2023/06/30 02:19:59;;;;;;;11.70;5.10;;;;;;;;;;4883606;29;20052;-73
2023/06/30 02:22:26;;;;;;;14.07;5.45;;;;;;;;;;4882946;29;20048;-73
2023/06/30 02:24:53;;;;;;;18.30;5.53;;;;;;;;;;4882521;29;20135;-73
2023/06/30 02:27:20;;;;;;;11.48;5.28;;;;;;;;;;4864580;29;20064;-73
2023/06/30 02:29:46;;;;;;;16.00;6.18;;;;;;;;;;4883206;29;21208;-73
2023/06/30 02:32:12;;;;;;;9.85;5.43;;;;;;;;;;4869017;29;20071;-73
2023/06/30 02:34:38;;;;;;;16.48;6.80;;;;;;;;;;4892007;29;20048;-74
2023/06/30 02:37:04;;;;;;;13.35;5.40;;;;;;;;;;4890311;29;20203;-73
2023/06/30 02:39:30;;;;;;;8.75;5.57;;;;;;;;;;4889056;29;20044;-72
2023/06/30 02:41:56;;;;;;;14.80;5.75;;;;;;;;;;4889867;29;20044;-73
2023/06/30 02:44:22;;;;;;;16.27;5.53;;;;;;;;;;4892643;29;20137;-73
2023/06/30 02:46:48;;;;;;;15.35;6.07;;;;;;;;;;4895483;29;20072;-73
2023/06/30 02:49:14;;;;;;;17.95;5.57;;;;;;;;;;4868406;29;20090;-72
2023/06/30 02:51:41;;;;;;;15.52;6.10;;;;;;;;;;4890028;29;20127;-72
2023/06/30 02:54:07;;;;;;;13.13;5.90;;;;;;;;;;4884061;29;20059;-74
2023/06/30 02:56:33;;;;;;;17.40;6.07;;;;;;;;;;4881540;29;20044;-73
2023/06/30 02:58:59;;;;;;;11.93;5.38;;;;;;;;;;4866386;29;20048;-73
2023/06/30 03:01:25;;;;;;;15.00;5.95;;;;;;;;;;4877892;29;20139;-73
2023/06/30 03:03:52;;;;;;;15.27;5.57;;;;;;;;;;4879760;29;20041;-72
2023/06/30 03:06:20;;;;;;;14.55;5.75;;;;;;;;;;4880520;29;20172;-73
2023/06/30 03:08:46;;;;;;;14.38;5.70;;;;;;;;;;4880730;29;20056;-73
2023/06/30 03:11:13;;;;;;;14.50;6.25;;;;;;;;;;4880323;29;20048;-74
2023/06/30 03:13:39;;;;;;;13.30;5.70;;;;;;;;;;4879517;29;20092;-73
2023/06/30 03:16:07;;;;;;;15.40;6.13;;;;;;;;;;4882154;29;20056;-73
2023/06/30 03:18:33;;;;;;;16.15;5.90;;;;;;;;;;4860992;29;20084;-72
2023/06/30 03:20:59;;;;;;;20.98;6.07;;;;;;;;;;4876460;29;20044;-73
2023/06/30 03:23:25;;;;;;;12.25;5.60;;;;;;;;;;4880968;29;20052;-73
2023/06/30 03:25:51;;;;;;;13.10;5.50;;;;;;;;;;4863889;29;20064;-73
2023/06/30 03:28:17;;;;;;;14.45;6.10;;;;;;;;;;4862718;29;21992;-73
2023/06/30 03:30:43;;;;;;;16.50;6.00;;;;;;;;;;4884050;29;20793;-76
2023/06/30 03:33:09;;;;;;;17.05;6.20;;;;;;;;;;4881619;29;20075;-76
2023/06/30 03:35:35;;;;;;;11.90;5.90;;;;;;;;;;4884691;29;20496;-75
2023/06/30 03:38:01;;;;;;;12.52;6.55;;;;;;;;;;4881334;29;20047;-75
2023/06/30 03:40:28;;;;;;;11.65;5.57;;;;;;;;;;4881540;29;20087;-75
2023/06/30 03:42:54;;;;;;;20.85;6.93;;;;;;;;;;4879767;29;20048;-76
2023/06/30 03:45:20;;;;;;;17.50;6.05;;;;;;;;;;4880315;29;20071;-76
2023/06/30 03:47:47;;;;;;;20.75;6.32;;;;;;;;;;4880767;29;20052;-76
2023/06/30 03:50:13;;;;;;;16.80;6.22;;;;;;;;;;4884427;29;20424;-76
2023/06/30 03:52:39;;;;;;;15.52;6.47;;;;;;;;;;4883739;29;20653;-76
2023/06/30 03:55:06;;;;;;;17.90;6.32;;;;;;;;;;4883857;29;20051;-76
2023/06/30 03:57:32;;;;;;;12.63;5.72;;;;;;;;;;4870471;29;20048;-76
2023/06/30 03:59:58;;;;;;;15.32;5.65;;;;;;;;;;4882613;29;20051;-76
2023/06/30 04:02:24;;;;;;;16.10;6.35;;;;;;;;;;4886962;29;20048;-75
2023/06/30 04:04:50;;;;;;;28.92;6.57;;;;;;;;;;4882602;29;20048;-76
2023/06/30 04:07:17;;;;;;;21.50;6.25;;;;;;;;;;4880659;29;20048;-76
2023/06/30 04:09:43;;;;;;;17.85;5.68;;;;;;;;;;4882485;29;20052;-76
2023/06/30 04:12:09;;;;;;;14.38;5.63;;;;;;;;;;4883299;29;20068;-75
2023/06/30 04:14:35;;;;;;;13.50;5.38;;;;;;;;;;4883454;29;20040;-76
2023/06/30 04:17:02;;;;;;;11.18;5.68;;;;;;;;;;4882831;29;20048;-76
2023/06/30 04:19:28;;;;;;;15.85;5.32;;;;;;;;;;4887938;29;20044;-75
2023/06/30 04:21:54;;;;;;;15.65;5.40;;;;;;;;;;4883065;29;20183;-75
2023/06/30 04:24:20;;;;;;;17.75;5.53;;;;;;;;;;4884618;29;20128;-75
2023/06/30 04:26:46;;;;;;;14.05;5.82;;;;;;;;;;4868268;29;20505;-76
2023/06/30 04:29:12;;;;;;;11.10;5.72;;;;;;;;;;4882475;29;20152;-76
2023/06/30 04:31:38;;;;;;;15.57;5.05;;;;;;;;;;4884648;29;20100;-75
2023/06/30 04:34:05;;;;;;;14.43;5.72;;;;;;;;;;4889200;29;20052;-76
2023/06/30 04:36:31;;;;;;;15.93;5.47;;;;;;;;;;4877847;29;20040;-75
2023/06/30 04:38:57;;;;;;;17.92;5.63;;;;;;;;;;4888772;29;20063;-75
2023/06/30 04:41:23;;;;;;;16.85;6.30;;;;;;;;;;4887719;29;20075;-75
2023/06/30 04:43:49;;;;;;;14.07;6.25;;;;;;;;;;4886026;29;20131;-76
2023/06/30 04:46:16;;;;;;;14.30;5.55;;;;;;;;;;4887630;29;20045;-76
2023/06/30 04:48:42;;;;;;;14.45;5.07;;;;;;;;;;4868092;29;20051;-76
2023/06/30 04:51:08;;;;;;;12.50;5.10;;;;;;;;;;4882489;29;20052;-76
2023/06/30 04:53:34;;;;;;;17.80;7.20;;;;;;;;;;4884552;29;21219;-76
2023/06/30 04:56:00;;;;;;;12.43;5.28;;;;;;;;;;4880326;29;20118;-76
2023/06/30 04:58:26;;;;;;;11.80;6.03;;;;;;;;;;4888283;29;20053;-77
2023/06/30 05:00:55;;;;;;;10.65;4.85;;;;;;;;;;4880885;29;20048;-77
2023/06/30 05:03:21;;;;;;;11.75;5.63;;;;;;;;;;4887236;29;20048;-76
2023/06/30 05:05:47;;;;;;;14.30;5.93;;;;;;;;;;4871047;29;20058;-76
2023/06/30 05:08:14;;;;;;;13.40;5.28;;;;;;;;;;4881054;29;20501;-77
2023/06/30 05:10:40;;;;;;;10.52;5.20;;;;;;;;;;4880327;29;20053;-76
2023/06/30 05:13:06;;;;;;;18.65;4.97;;;;;;;;;;4883483;29;20078;-76
2023/06/30 05:15:32;;;;;;;14.98;5.78;;;;;;;;;;4880811;29;20081;-76
2023/06/30 05:17:58;;;;;;;15.88;5.10;;;;;;;;;;4882880;29;20084;-76
2023/06/30 05:20:24;;;;;;;8.05;4.88;;;;;;;;;;4881454;29;20055;-77
2023/06/30 05:22:50;;;;;;;14.20;5.18;;;;;;;;;;4880762;29;20040;-76
2023/06/30 05:25:17;;;;;;;13.10;4.80;;;;;;;;;;4866165;29;20769;-76
2023/06/30 05:27:43;;;;;;;17.17;4.95;;;;;;;;;;4896036;29;20056;-76
2023/06/30 05:30:09;;;;;;;11.20;4.68;;;;;;;;;;4880502;29;20155;-77
2023/06/30 05:32:35;;;;;;;9.13;3.80;;;;;;;;;;4865914;29;20048;-75
2023/06/30 05:35:01;;;;;;;13.18;4.90;;;;;;;;;;4880547;29;20055;-75
2023/06/30 05:37:27;;;;;;;12.80;4.13;;;;;;;;;;4883424;29;20047;-76
2023/06/30 05:39:53;;;;;;;14.43;4.25;;;;;;;;;;4882765;29;20052;-76
2023/06/30 05:42:19;;;;;;;13.93;3.92;;;;;;;;;;4869816;29;20088;-75
2023/06/30 05:44:45;;;;;;;8.68;3.70;;;;;;;;;;4880078;29;20049;-76
2023/06/30 05:47:12;;;;;;;10.57;4.25;;;;;;;;;;4884197;29;20044;-75
2023/06/30 05:49:38;;;;;;;7.93;4.57;;;;;;;;;;4886403;29;20047;-75
2023/06/30 05:52:07;;;;;;;13.40;4.43;;;;;;;;;;4873895;29;20136;-75
2023/06/30 05:54:33;;;;;;;20.08;5.22;;;;;;;;;;4871284;29;20051;-75
2023/06/30 05:56:59;;;;;;;14.25;4.55;;;;;;;;;;4902214;29;20044;-75
2023/06/30 05:59:27;;;;;;;9.90;4.00;;;;;;;;;;4886204;29;21611;-74
2023/06/30 06:01:54;;;;;;;5.82;4.07;;;;;;;;;;4885313;29;20051;-75
2023/06/30 06:04:21;;;;;;;8.30;4.03;;;;;;;;;;4887030;29;20044;-75
2023/06/30 06:06:47;;;;;;;10.20;3.92;;;;;;;;;;4883756;29;20050;-76
2023/06/30 06:09:13;;;;;;;6.13;3.60;;;;;;;;;;4901312;29;20412;-76
2023/06/30 06:11:39;;;;;;;9.68;3.50;;;;;;;;;;4882356;29;20049;-75
2023/06/30 06:14:05;;;;;;;9.98;3.00;;;;;;;;;;4882006;29;20407;-76
2023/06/30 06:16:31;;;;;;;8.52;3.00;;;;;;;;;;4882353;29;20044;-74
2023/06/30 06:18:58;;;;;;;6.57;2.95;;;;;;;;;;4882330;29;20056;-76
2023/06/30 06:21:28;;;;;;;17.83;2.58;;;;;;;;;;4883122;29;20471;-75
2023/06/30 06:23:54;;;;;;;4.82;2.30;;;;;;;;;;4864860;29;20088;-75
2023/06/30 06:26:20;;;;;;;6.45;2.10;;;;;;;;;;4882398;29;20083;-75
2023/06/30 06:28:47;;;;;;;8.30;2.42;;;;;;;;;;4883703;29;20464;-75
2023/06/30 06:31:13;;;;;;;4.35;2.15;;;;;;;;;;4868544;29;20397;-75
2023/06/30 06:33:39;;;;;;;4.32;1.67;;;;;;;;;;4881878;29;20480;-76
2023/06/30 06:36:05;;;;;;;5.60;2.20;;;;;;;;;;4881365;29;20886;-76
2023/06/30 06:38:31;;;;;;;8.82;2.65;;;;;;;;;;4867481;29;20051;-76
2023/06/30 06:40:57;;;;;;;5.90;1.85;;;;;;;;;;4874959;29;20123;-75
2023/06/30 06:43:26;;;;;;;7.82;2.13;;;;;;;;;;4888766;29;20408;-75
2023/06/30 06:45:52;;;;;;;9.02;2.03;;;;;;;;;;4867363;29;20040;-79
2023/06/30 06:48:28;;;;;;;12.13;2.00;;;;;;;;;;4884299;29;22018;-75
2023/06/30 06:50:55;;;;;;;3.67;1.98;;;;;;;;;;4883255;29;20075;-76
2023/06/30 06:53:22;;;;;;;7.10;2.17;;;;;;;;;;4883716;29;20052;-75
2023/06/30 06:55:52;;;;;;;8.45;1.33;;;;;;;;;;4883847;29;20119;-74
2023/06/30 06:58:18;;;;;;;4.97;1.17;;;;;;;;;;4882661;29;20712;-74
2023/06/30 07:00:48;;;;;;;4.05;1.40;;;;;;;;;;4880587;29;20048;-73
2023/06/30 07:03:14;;;;;;;4.18;1.30;;;;;;;;;;4891118;29;20055;-74
2023/06/30 07:05:41;;;;;;;4.13;1.17;;;;;;;;;;4883368;29;22012;-75
2023/06/30 07:08:08;;;;;;;4.13;1.35;;;;;;;;;;4883971;29;20453;-74
2023/06/30 07:10:34;;;;;;;4.68;0.80;;;;;;;;;;4883439;29;20058;-74
2023/06/30 07:13:00;;;;;;;2.92;0.90;;;;;;;;;;4880530;29;20507;-74
2023/06/30 07:15:26;;;;;;;4.65;1.00;;;;;;;;;;4882089;29;20052;-74
2023/06/30 07:17:52;;;;;;;3.83;1.17;;;;;;;;;;4886275;29;20049;-76
2023/06/30 07:20:18;;;;;;;2.25;0.85;;;;;;;;;;4872355;29;21739;-75
2023/06/30 07:22:44;;;;;;;2.58;1.33;;;;;;;;;;4884307;29;20576;-75
2023/06/30 07:25:10;;;;;;;5.05;1.00;;;;;;;;;;4887990;29;20811;-75
2023/06/30 07:27:38;;;;;;;6.13;0.90;;;;;;;;;;4871232;29;20071;-75
2023/06/30 07:30:05;;;;;;;3.90;0.95;;;;;;;;;;4882337;29;20052;-74
2023/06/30 07:32:31;;;;;;;2.67;1.15;;;;;;;;;;4879206;29;20572;-75
2023/06/30 07:34:57;;;;;;;4.45;1.48;;;;;;;;;;4877647;29;20139;-75
2023/06/30 07:37:23;;;;;;;4.35;0.70;;;;;;;;;;4877636;29;20485;-75
2023/06/30 07:39:49;;;;;;;5.25;1.10;;;;;;;;;;4881525;29;20063;-75
2023/06/30 07:42:15;;;;;;;3.88;1.08;;;;;;;;;;4870155;29;20175;-75
2023/06/30 07:44:41;;;;;;;1.80;0.90;;;;;;;;;;4853272;29;20056;-74
2023/06/30 07:47:07;;;;;;;8.45;1.20;;;;;;;;;;4860974;29;20358;-75
2023/06/30 07:49:34;;;;;;;6.00;1.52;;;;;;;;;;4882967;29;20052;-75
2023/06/30 07:52:00;;;;;;;3.85;1.33;;;;;;;;;;4881769;29;20070;-75
2023/06/30 07:54:26;;;;;;;8.00;1.40;;;;;;;;;;4881489;29;20758;-74
2023/06/30 07:56:52;;;;;;;5.28;1.40;;;;;;;;;;4882787;29;20096;-74
2023/06/30 07:59:19;;;;;;;4.25;1.20;;;;;;;;;;4880863;29;20139;-74
2023/06/30 08:01:45;;;;;;;5.82;1.10;;;;;;;;;;4881756;29;20084;-74
2023/06/30 08:04:11;;;;;;;6.10;1.45;;;;;;;;;;4882283;29;20052;-74
2023/06/30 08:06:37;;;;;;;6.60;1.20;;;;;;;;;;4883489;29;20560;-75
2023/06/30 08:09:03;;;;;;;7.78;1.35;;;;;;;;;;4879952;29;20115;-74
2023/06/30 08:11:30;;;;;;;4.40;1.40;;;;;;;;;;4881968;29;20040;-75
2023/06/30 08:13:56;;;;;;;9.48;1.75;;;;;;;;;;4882242;29;20057;-75
2023/06/30 08:16:23;;;;;;;5.38;1.10;;;;;;;;;;4879191;29;20066;-76
2023/06/30 08:18:49;;;;;;;4.88;1.42;;;;;;;;;;4879072;29;20139;-76
2023/06/30 08:21:15;;;;;;;6.82;1.40;;;;;;;;;;4863864;29;20083;-75
2023/06/30 08:23:41;;;;;;;3.70;1.48;;;;;;;;;;4873805;29;20052;-74
2023/06/30 08:26:07;;;;;;;6.18;1.88;;;;;;;;;;4881109;29;20064;-75
2023/06/30 08:28:33;;;;;;;6.80;1.30;;;;;;;;;;4881655;29;20047;-74
2023/06/30 08:30:59;;;;;;;5.05;1.48;;;;;;;;;;4904981;29;20081;-74
2023/06/30 08:33:29;;;;;;;4.18;1.40;;;;;;;;;;4890229;29;20044;-75
2023/06/30 08:35:56;;;;;;;3.47;1.30;;;;;;;;;;4893733;29;20052;-76
2023/06/30 08:38:22;;;;;;;15.55;2.67;;;;;;;;;;4894150;29;20052;-74
2023/06/30 08:40:48;;;;;;;4.68;1.52;;;;;;;;;;4886597;29;21965;-74
2023/06/30 08:43:14;;;;;;;6.50;1.25;;;;;;;;;;4888751;29;20147;-74
2023/06/30 08:45:42;;;;;;;4.78;1.25;;;;;;;;;;4881127;29;20049;-73
2023/06/30 08:48:09;;;;;;;2.67;1.00;;;;;;;;;;4879445;29;20060;-74
2023/06/30 08:50:36;;;;;;;4.07;0.80;;;;;;;;;;4882605;29;20054;-76
2023/06/30 08:53:02;;;;;;;4.80;1.30;;;;;;;;;;4898218;29;20122;-73
2023/06/30 08:55:29;;;;;;;6.90;0.93;;;;;;;;;;4881928;29;20086;-72
2023/06/30 08:57:58;;;;;;;3.97;1.20;;;;;;;;;;4883252;29;20166;-72
2023/06/30 09:00:25;;;;;;;5.22;1.20;;;;;;;;;;4880967;29;20183;-73
2023/06/30 09:02:53;;;;;;;2.35;1.00;;;;;;;;;;4882225;29;20588;-72
2023/06/30 09:05:20;;;;;;;3.13;0.80;;;;;;;;;;4885364;29;20048;-73
2023/06/30 09:07:48;;;;;;;3.75;1.20;;;;;;;;;;4881515;29;20143;-72
2023/06/30 09:10:14;;;;;;;6.93;1.48;;;;;;;;;;4881343;29;20095;-73
2023/06/30 09:12:41;;;;;;;6.80;1.30;;;;;;;;;;4868749;29;20135;-73
2023/06/30 09:15:08;;;;;;;3.10;0.85;;;;;;;;;;4882205;29;21689;-74
2023/06/30 09:17:34;;;;;;;5.25;1.27;;;;;;;;;;4882798;29;20043;-73
2023/06/30 09:20:00;;;;;;;4.32;1.95;;;;;;;;;;4880168;29;20056;-73
2023/06/30 09:22:26;;;;;;;3.63;1.00;;;;;;;;;;4883485;29;20049;-73
2023/06/30 09:24:52;;;;;;;7.07;1.20;;;;;;;;;;4863260;29;20044;-73
2023/06/30 09:27:18;;;;;;;6.72;1.45;;;;;;;;;;4884332;29;20075;-73
2023/06/30 09:29:53;;;;;;;6.57;1.75;;;;;;;;;;4880812;29;20147;-74
2023/06/30 09:32:26;;;;;;;13.40;1.33;;;;;;;;;;4881487;29;20124;-75
2023/06/30 09:34:54;;;;;;;4.10;1.20;;;;;;;;;;4880832;29;20556;-75
2023/06/30 09:37:20;;;;;;;5.32;1.63;;;;;;;;;;4877098;29;20039;-75
2023/06/30 09:39:52;;;;;;;4.88;1.10;;;;;;;;;;4882216;29;20496;-74
2023/06/30 09:42:21;;;;;;;2.00;0.90;;;;;;;;;;4882312;29;20040;-75
2023/06/30 09:44:47;;;;;;;9.00;1.42;;;;;;;;;;4881457;29;20051;-75
2023/06/30 09:47:17;;;;;;;5.18;1.00;;;;;;;;;;4881517;29;20163;-74
2023/06/30 09:49:44;;;;;;;4.10;1.30;;;;;;;;;;4880640;29;20437;-75
2023/06/30 09:52:10;;;;;;;6.38;1.65;;;;;;;;;;4882141;29;20052;-75
2023/06/30 09:54:36;;;;;;;6.63;1.25;;;;;;;;;;4883263;29;20060;-75
2023/06/30 09:57:06;;;;;;;6.75;1.17;;;;;;;;;;4879975;29;20060;-75
2023/06/30 09:59:33;;;;;;;4.00;1.08;;;;;;;;;;4878861;29;21341;-74
2023/06/30 10:02:00;;;;;;;4.85;1.42;;;;;;;;;;4879693;29;20404;-74
2023/06/30 10:04:29;;;;;;;4.03;1.42;;;;;;;;;;4872049;29;20039;-75
2023/06/30 10:06:56;;;;;;;3.20;0.80;;;;;;;;;;4880392;29;20079;-75
2023/06/30 10:09:23;;;;;;;5.82;1.25;;;;;;;;;;4879660;29;20421;-75
2023/06/30 10:11:51;;;;;;;6.32;1.60;;;;;;;;;;4879361;29;20060;-75
2023/06/30 10:14:20;;;;;;;7.38;1.30;;;;;;;;;;4878765;29;20043;-75
2023/06/30 10:16:47;;;;;;;4.38;1.15;;;;;;;;;;4880420;29;20056;-75
2023/06/30 10:19:14;;;;;;;8.27;1.20;;;;;;;;;;4862470;29;20047;-76
2023/06/30 10:21:40;;;;;;;3.42;0.90;;;;;;;;;;4878265;29;20124;-76
2023/06/30 10:24:07;;;;;;;9.13;1.20;;;;;;;;;;4869625;29;20113;-76
2023/06/30 10:26:35;;;;;;;4.03;1.30;;;;;;;;;;4879510;29;21616;-75
2023/06/30 10:29:01;;;;;;;4.22;1.50;;;;;;;;;;4896012;29;20208;-75
2023/06/30 10:31:28;;;;;;;6.35;1.30;;;;;;;;;;4881780;29;20127;-74
2023/06/30 10:33:54;;;;;;;4.63;1.10;;;;;;;;;;4876835;29;20094;-75
2023/06/30 10:36:20;;;;;;;9.07;2.20;;;;;;;;;;4878337;29;20052;-76
2023/06/30 10:38:47;;;;;;;3.83;1.35;;;;;;;;;;4874653;29;20051;-75
2023/06/30 10:41:19;;;;;;;5.53;1.42;;;;;;;;;;4878697;29;20059;-76
2023/06/30 10:44:00;;;;;;;5.70;1.30;;;;;;;;;;4865339;29;20075;-76
2023/06/30 10:46:50;;;;;;;5.38;1.23;;;;;;;;;;4874129;29;20440;-75
2023/06/30 10:49:26;;;;;;;4.07;1.50;;;;;;;;;;4878148;29;20143;-75
2023/06/30 10:51:53;;;;;;;5.63;1.10;;;;;;;;;;4875706;29;20055;-75
2023/06/30 10:54:23;;;;;;;4.30;1.13;;;;;;;;;;4846050;29;20123;-75
2023/06/30 10:56:50;;;;;;;4.80;1.10;;;;;;;;;;4874297;29;20064;-75
2023/06/30 10:59:26;;;;;;;1.58;0.80;;;;;;;;;;4877085;29;20060;-75
2023/06/30 11:02:14;;;;;;;3.70;0.90;;;;;;;;;;4874913;29;20091;-75
2023/06/30 11:04:40;;;;;;;2.75;0.90;;;;;;;;;;4880945;29;20135;-75
2023/06/30 11:07:07;;;;;;;2.17;0.82;;;;;;;;;;4873756;29;20132;-75
2023/06/30 11:09:48;;;;;;;7.00;1.23;;;;;;;;;;4877116;29;20048;-74
2023/06/30 11:12:24;;;;;;;2.72;0.82;;;;;;;;;;4877189;29;20605;-76
2023/06/30 11:15:01;;;;;;;3.28;1.27;;;;;;;;;;4877379;29;20539;-76
2023/06/30 11:17:47;;;;;;;4.05;1.00;;;;;;;;;;4866096;29;20052;-76
2023/06/30 11:20:13;;;;;;;6.68;1.00;;;;;;;;;;4859931;29;20048;-76
2023/06/30 11:22:40;;;;;;;3.17;0.95;;;;;;;;;;4868835;29;20052;-75
2023/06/30 11:25:10;;;;;;;7.00;1.23;;;;;;;;;;4881588;29;22164;-76
2023/06/30 11:27:36;;;;;;;3.53;1.73;;;;;;;;;;4877479;29;20412;-75
2023/06/30 11:30:03;;;;;;;2.78;1.10;;;;;;;;;;4880798;29;20183;-76
2023/06/30 11:32:33;;;;;;;3.25;1.00;;;;;;;;;;4873229;29;20519;-76
2023/06/30 11:35:01;;;;;;;2.78;1.05;;;;;;;;;;4849376;29;20044;-75
2023/06/30 11:37:29;;;;;;;3.75;1.00;;;;;;;;;;4882363;29;20051;-75
2023/06/30 11:39:57;;;;;;;4.47;1.23;;;;;;;;;;4882813;29;20049;-76
2023/06/30 11:42:23;;;;;;;5.93;1.50;;;;;;;;;;4887195;29;20422;-75
2023/06/30 11:44:50;;;;;;;4.38;1.35;;;;;;;;;;4865158;29;20464;-74
2023/06/30 11:47:19;;;;;;;2.33;1.33;;;;;;;;;;4894657;29;20080;-75
2023/06/30 11:49:46;;;;;;;4.22;1.02;;;;;;;;;;4881475;29;20143;-76
2023/06/30 11:52:12;;;;;;;2.55;1.20;;;;;;;;;;4864978;29;20184;-75
2023/06/30 11:54:38;;;;;;;7.53;1.30;;;;;;;;;;4885156;29;20059;-75
2023/06/30 11:57:04;;;;;;;5.88;1.58;;;;;;;;;;4865820;29;20749;-75
2023/06/30 11:59:31;;;;;;;4.93;1.45;;;;;;;;;;4883720;29;20509;-75
2023/06/30 12:01:57;;;;;;;3.63;1.17;;;;;;;;;;4882533;29;20174;-75
2023/06/30 12:04:30;;;;;;;4.47;0.95;;;;;;;;;;4883987;29;20048;-75
2023/06/30 12:06:56;;;;;;;3.87;1.20;;;;;;;;;;4866269;29;20445;-74
2023/06/30 12:09:22;;;;;;;7.60;1.50;;;;;;;;;;4882858;29;21128;-75
2023/06/30 12:11:49;;;;;;;4.18;1.48;;;;;;;;;;4889861;29;20138;-75
2023/06/30 12:14:16;;;;;;;3.47;1.30;;;;;;;;;;4896962;29;20044;-74
2023/06/30 12:16:48;;;;;;;5.38;1.60;;;;;;;;;;4889091;29;20175;-75
2023/06/30 12:19:14;;;;;;;5.78;1.60;;;;;;;;;;4893801;29;20139;-75
2023/06/30 12:21:50;;;;;;;2.58;1.08;;;;;;;;;;4884642;29;20104;-74
2023/06/30 12:24:23;;;;;;;6.32;1.48;;;;;;;;;;4895969;29;20173;-74
2023/06/30 12:26:52;;;;;;;5.53;1.30;;;;;;;;;;4894611;29;20688;-73
2023/06/30 12:29:18;;;;;;;4.45;1.40;;;;;;;;;;4892309;29;20068;-75
2023/06/30 12:31:47;;;;;;;7.10;1.42;;;;;;;;;;4893750;29;20176;-75
2023/06/30 12:34:13;;;;;;;4.90;1.42;;;;;;;;;;4888356;29;20542;-74
2023/06/30 12:36:42;;;;;;;4.57;1.52;;;;;;;;;;4885424;29;20051;-75
2023/06/30 12:39:09;;;;;;;4.22;1.40;;;;;;;;;;4889068;29;20063;-75
2023/06/30 12:41:35;;;;;;;5.45;1.15;;;;;;;;;;4882642;29;20060;-75
2023/06/30 12:44:01;;;;;;;5.88;1.98;;;;;;;;;;4898917;29;20087;-75
2023/06/30 12:46:27;;;;;;;5.00;1.48;;;;;;;;;;4884235;29;20044;-75
2023/06/30 12:48:53;;;;;;;5.25;1.65;;;;;;;;;;4871746;29;20756;-75
2023/06/30 12:51:20;;;;;;;5.10;1.63;;;;;;;;;;4885820;29;20052;-75
2023/06/30 12:53:46;;;;;;;4.57;1.50;;;;;;;;;;4882218;29;20052;-75
2023/06/30 12:56:12;;;;;;;4.68;1.25;;;;;;;;;;4882648;29;20082;-76
2023/06/30 12:58:38;;;;;;;8.88;1.80;;;;;;;;;;4882986;29;20110;-76
2023/06/30 13:01:04;;;;;;;5.18;1.33;;;;;;;;;;4885595;29;20044;-76
2023/06/30 13:03:32;;;;;;;5.55;1.38;;;;;;;;;;4886360;29;20068;-75
2023/06/30 13:05:58;;;;;;;3.20;1.23;;;;;;;;;;4883796;29;20047;-75
2023/06/30 13:08:24;;;;;;;4.32;1.33;;;;;;;;;;4883819;29;20052;-76
2023/06/30 13:10:50;;;;;;;7.53;2.08;;;;;;;;;;4883971;29;20547;-74
2023/06/30 13:13:17;;;;;;;3.25;1.55;;;;;;;;;;4900764;29;20067;-75
2023/06/30 13:15:43;;;;;;;3.90;1.23;;;;;;;;;;4887439;29;20051;-75
2023/06/30 13:18:09;;;;;;;2.45;0.98;;;;;;;;;;4866984;29;20071;-76
2023/06/30 13:20:35;;;;;;;3.85;1.00;;;;;;;;;;4883445;29;20043;-76
2023/06/30 13:23:02;;;;;;;2.95;1.38;;;;;;;;;;4884954;29;22090;-73
2023/06/30 13:25:29;;;;;;;4.75;1.60;;;;;;;;;;4879615;29;20560;-75
2023/06/30 13:27:55;;;;;;;4.18;1.30;;;;;;;;;;4879721;29;20451;-75
2023/06/30 13:30:22;;;;;;;2.13;1.25;;;;;;;;;;4876199;29;20060;-75
2023/06/30 13:32:48;;;;;;;4.05;1.40;;;;;;;;;;4880868;29;20040;-76
2023/06/30 13:35:14;;;;;;;4.85;1.20;;;;;;;;;;4890964;29;20091;-76
2023/06/30 13:37:40;;;;;;;4.85;1.65;;;;;;;;;;4874986;29;20123;-75
2023/06/30 13:40:07;;;;;;;3.15;1.30;;;;;;;;;;4876812;29;20362;-76
2023/06/30 13:42:34;;;;;;;3.05;1.77;;;;;;;;;;4883348;29;20082;-77
2023/06/30 13:45:00;;;;;;;6.28;1.80;;;;;;;;;;4878240;29;20173;-76
2023/06/30 13:47:26;;;;;;;3.17;1.30;;;;;;;;;;4875871;29;20048;-76
2023/06/30 13:49:52;;;;;;;7.55;1.40;;;;;;;;;;4875149;29;20056;-77
2023/06/30 13:52:18;;;;;;;4.03;1.42;;;;;;;;;;4877019;29;21041;-76
2023/06/30 13:54:44;;;;;;;5.40;1.35;;;;;;;;;;4876192;29;20053;-76
2023/06/30 13:57:11;;;;;;;7.30;1.17;;;;;;;;;;4868202;29;20182;-76
2023/06/30 13:59:37;;;;;;;4.03;1.52;;;;;;;;;;4878430;29;20144;-75
2023/06/30 14:02:03;;;;;;;3.70;1.73;;;;;;;;;;4879540;29;20509;-76
2023/06/30 14:04:29;;;;;;;3.20;1.70;;;;;;;;;;4875757;29;20044;-76
2023/06/30 14:06:55;;;;;;;6.57;1.42;;;;;;;;;;4876669;29;20103;-76
2023/06/30 14:09:21;;;;;;;2.85;1.42;;;;;;;;;;4877317;29;20048;-76
2023/06/30 14:11:47;;;;;;;8.07;1.30;;;;;;;;;;4878304;29;20044;-75
2023/06/30 14:14:13;;;;;;;4.20;1.65;;;;;;;;;;4878280;29;20044;-75
2023/06/30 14:16:40;;;;;;;3.88;1.67;;;;;;;;;;4846947;29;20052;-76
2023/06/30 14:19:06;;;;;;;3.28;1.20;;;;;;;;;;4879787;29;20079;-78
2023/06/30 14:21:32;;;;;;;6.05;1.20;;;;;;;;;;4880362;29;20044;-75
2023/06/30 14:23:59;;;;;;;2.95;1.65;;;;;;;;;;4866054;29;20064;-76
2023/06/30 14:26:25;;;;;;;2.50;1.20;;;;;;;;;;4875386;29;20087;-76
2023/06/30 14:28:52;;;;;;;2.60;1.65;;;;;;;;;;4876074;29;20107;-75
2023/06/30 14:31:18;;;;;;;5.20;1.45;;;;;;;;;;4883163;29;20125;-76
2023/06/30 14:33:44;;;;;;;4.03;1.50;;;;;;;;;;4884456;29;20072;-76
2023/06/30 14:36:10;;;;;;;3.20;1.75;;;;;;;;;;4885036;29;20055;-75
2023/06/30 14:38:36;;;;;;;5.50;1.83;;;;;;;;;;4884427;29;20429;-75